Terminal Aerodrome Forecast
Issued by NWS

Home | Current Version | Previous Version | Text Only | Print | Product List | Glossary On
Versions: 1 2 3 4 5 6 7 8 9 10 11 12 13 14 15 16 17 18 19 20 21 22 23 24 25 26
000
FTUS41 KALY 022353 CCA
TAFPSF
TAF COR
KPSF 022353Z 0300/0324 30020G35KT 5SM -SHSN BR OVC035
      TEMPO 0300/0302 2SM -SHSN BR
     FM030200 30010KT P6SM BKN035
     FM030600 30005KT P6SM SCT035
     FM030900 00000KT P6SM SKC
     FM031500 20005KT P6SM BKN200
     FM032100 18010KT 3SM -SN BR SCT015 OVC030=

USA.gov is the U.S. government's official web portal to all federal, state and local government web resources and services.